Fire Weather Observation
Issued by NWS Grand Junction, CO

Home | Current Version | Previous Version | Graphics & Text | Print | Product List | Glossary On
Versions: 1 2 3 4 5 6 7 8 9 10 11 12 13 14 15 16 17 18 19 20 21 22 23 24 25 26 27 28 29 30 31 32 33
000
SHUS65 KGJT 242015
FWOGJT

DAILY FIRE WEATHER OBSERVATION
NATIONAL WEATHER SERVICE GRAND JUNCTION CO
212 PM MDT SAT SEP 24 2016

STATE OF THE WEATHER (W)               3
DRY BULB TEMPERATURE                   58   DEGREES FAHRENHEIT
RELATIVE HUMIDITY (RH)                 57   PERCENT
LIGHTNING ACTIVITY LEVEL
  (LAL - MIDNIGHT TO 2 PM)             1
WIND DIRECTION                         360  DEGREES (C IF CALM)
WIND SPEED                             8    MPH
MAX TEMP (2 PM - 2 PM)                 60   DEGREES FAHRENHEIT
MIN TEMP (2 PM - 2 PM)                 45   DEGREES FAHRENHEIT
MAX RH (2 PM - 2 PM)                   89   PERCENT
MIN RH (2 PM - 2 PM)                   47   PERCENT
PCPN DURATION                          6.7  HOURS
PCPN AMT (2 PM - 2 PM)                 0.06 INCHES
LAL (2 PM - 2 PM)                      2

$$

METAR KGJT 241953Z 02007KT 10SM OVC075 14/06 A3019 RMK AO2
      SLP195 T01440061



USA.gov is the U.S. government's official web portal to all federal, state and local government web resources and services.